sensor_id;sensor_type;location;lat;lon;timestamp;P1;durP1;ratioP1;P2;durP2;ratioP2
1601;SDS011;794;48.592;9.634;2023-04-23T00:00:54;2.40;;;2.20;;
1601;SDS011;794;48.592;9.634;2023-04-23T00:03:26;4.47;;;2.50;;
1601;SDS011;794;48.592;9.634;2023-04-23T00:05:57;3.60;;;1.70;;
1601;SDS011;794;48.592;9.634;2023-04-23T00:08:27;5.20;;;2.33;;
1601;SDS011;794;48.592;9.634;2023-04-23T00:11:08;2.50;;;1.97;;
1601;SDS011;794;48.592;9.634;2023-04-23T00:13:36;5.60;;;2.27;;
1601;SDS011;794;48.592;9.634;2023-04-23T00:16:03;3.63;;;2.27;;
1601;SDS011;794;48.592;9.634;2023-04-23T00:18:31;3.23;;;2.27;;
1601;SDS011;794;48.592;9.634;2023-04-23T00:20:58;3.30;;;1.97;;
1601;SDS011;794;48.592;9.634;2023-04-23T00:23:24;5.53;;;2.70;;
1601;SDS011;794;48.592;9.634;2023-04-23T00:25:54;1.87;;;1.77;;
1601;SDS011;794;48.592;9.634;2023-04-23T00:28:26;2.80;;;2.57;;
1601;SDS011;794;48.592;9.634;2023-04-23T00:30:53;4.93;;;2.97;;
1601;SDS011;794;48.592;9.634;2023-04-23T00:33:22;2.40;;;2.20;;
1601;SDS011;794;48.592;9.634;2023-04-23T00:35:49;4.73;;;2.10;;
1601;SDS011;794;48.592;9.634;2023-04-23T00:38:19;4.80;;;2.37;;
1601;SDS011;794;48.592;9.634;2023-04-23T00:40:50;2.90;;;2.20;;
1601;SDS011;794;48.592;9.634;2023-04-23T00:43:17;3.50;;;2.20;;
1601;SDS011;794;48.592;9.634;2023-04-23T00:45:46;3.70;;;2.80;;
1601;SDS011;794;48.592;9.634;2023-04-23T00:48:13;5.17;;;2.80;;
1601;SDS011;794;48.592;9.634;2023-04-23T00:50:41;4.17;;;2.37;;
1601;SDS011;794;48.592;9.634;2023-04-23T00:53:08;2.73;;;2.30;;
1601;SDS011;794;48.592;9.634;2023-04-23T00:55:37;3.87;;;2.40;;
1601;SDS011;794;48.592;9.634;2023-04-23T00:58:07;3.00;;;2.47;;
1601;SDS011;794;48.592;9.634;2023-04-23T01:00:34;4.53;;;2.73;;
1601;SDS011;794;48.592;9.634;2023-04-23T01:03:14;3.90;;;2.57;;
1601;SDS011;794;48.592;9.634;2023-04-23T01:05:42;3.60;;;2.50;;
1601;SDS011;794;48.592;9.634;2023-04-23T01:08:09;3.93;;;2.10;;
1601;SDS011;794;48.592;9.634;2023-04-23T01:10:43;8.03;;;2.57;;
1601;SDS011;794;48.592;9.634;2023-04-23T01:13:12;5.17;;;2.80;;
1601;SDS011;794;48.592;9.634;2023-04-23T01:15:42;4.20;;;2.40;;
1601;SDS011;794;48.592;9.634;2023-04-23T01:18:14;2.97;;;1.80;;
1601;SDS011;794;48.592;9.634;2023-04-23T01:20:48;2.53;;;2.23;;
1601;SDS011;794;48.592;9.634;2023-04-23T01:23:17;4.83;;;2.27;;
1601;SDS011;794;48.592;9.634;2023-04-23T01:25:46;2.80;;;2.60;;
1601;SDS011;794;48.592;9.634;2023-04-23T01:28:13;4.10;;;2.53;;
1601;SDS011;794;48.592;9.634;2023-04-23T01:30:43;6.00;;;2.20;;
1601;SDS011;794;48.592;9.634;2023-04-23T01:33:11;4.90;;;2.63;;
1601;SDS011;794;48.592;9.634;2023-04-23T01:35:39;9.33;;;2.33;;
1601;SDS011;794;48.592;9.634;2023-04-23T01:38:09;2.20;;;2.00;;
1601;SDS011;794;48.592;9.634;2023-04-23T01:40:40;3.47;;;2.43;;
1601;SDS011;794;48.592;9.634;2023-04-23T01:43:07;2.60;;;2.30;;
1601;SDS011;794;48.592;9.634;2023-04-23T01:45:38;4.20;;;2.77;;
1601;SDS011;794;48.592;9.634;2023-04-23T01:48:05;4.33;;;2.33;;
1601;SDS011;794;48.592;9.634;2023-04-23T01:50:32;3.93;;;2.20;;
1601;SDS011;794;48.592;9.634;2023-04-23T01:53:00;2.80;;;1.70;;
1601;SDS011;794;48.592;9.634;2023-04-23T01:55:27;3.43;;;2.40;;
1601;SDS011;794;48.592;9.634;2023-04-23T01:57:58;5.97;;;2.33;;
1601;SDS011;794;48.592;9.634;2023-04-23T02:00:26;2.73;;;2.27;;
1601;SDS011;794;48.592;9.634;2023-04-23T02:02:53;5.80;;;2.83;;
1601;SDS011;794;48.592;9.634;2023-04-23T02:05:21;3.03;;;2.33;;
1601;SDS011;794;48.592;9.634;2023-04-23T02:07:49;7.13;;;3.17;;
1601;SDS011;794;48.592;9.634;2023-04-23T02:10:17;8.27;;;2.30;;
1601;SDS011;794;48.592;9.634;2023-04-23T02:12:44;5.27;;;3.17;;
1601;SDS011;794;48.592;9.634;2023-04-23T02:15:13;4.47;;;3.80;;
1601;SDS011;794;48.592;9.634;2023-04-23T02:17:41;3.10;;;2.80;;
1601;SDS011;794;48.592;9.634;2023-04-23T02:20:08;3.03;;;2.63;;
1601;SDS011;794;48.592;9.634;2023-04-23T02:22:38;5.80;;;2.60;;
1601;SDS011;794;48.592;9.634;2023-04-23T02:25:06;4.37;;;2.77;;
1601;SDS011;794;48.592;9.634;2023-04-23T02:27:34;2.80;;;2.60;;
1601;SDS011;794;48.592;9.634;2023-04-23T02:30:05;4.27;;;3.10;;
1601;SDS011;794;48.592;9.634;2023-04-23T02:32:34;4.20;;;2.40;;
1601;SDS011;794;48.592;9.634;2023-04-23T02:35:07;3.27;;;2.70;;
1601;SDS011;794;48.592;9.634;2023-04-23T02:37:34;4.60;;;2.90;;
1601;SDS011;794;48.592;9.634;2023-04-23T02:40:08;3.70;;;2.47;;
1601;SDS011;794;48.592;9.634;2023-04-23T02:42:38;2.73;;;2.50;;
1601;SDS011;794;48.592;9.634;2023-04-23T02:45:05;5.67;;;2.10;;
1601;SDS011;794;48.592;9.634;2023-04-23T02:47:33;3.77;;;2.20;;
1601;SDS011;794;48.592;9.634;2023-04-23T02:50:01;2.63;;;2.43;;
1601;SDS011;794;48.592;9.634;2023-04-23T02:52:30;3.50;;;2.90;;
1601;SDS011;794;48.592;9.634;2023-04-23T02:54:57;2.87;;;2.67;;
1601;SDS011;794;48.592;9.634;2023-04-23T02:57:24;2.43;;;2.23;;
1601;SDS011;794;48.592;9.634;2023-04-23T02:59:51;3.70;;;2.37;;
1601;SDS011;794;48.592;9.634;2023-04-23T03:02:18;4.07;;;1.87;;
1601;SDS011;794;48.592;9.634;2023-04-23T03:04:46;4.83;;;2.73;;
1601;SDS011;794;48.592;9.634;2023-04-23T03:07:13;2.47;;;1.97;;
1601;SDS011;794;48.592;9.634;2023-04-23T03:09:43;4.03;;;2.20;;
1601;SDS011;794;48.592;9.634;2023-04-23T03:12:09;4.90;;;2.37;;
1601;SDS011;794;48.592;9.634;2023-04-23T03:14:36;2.20;;;2.00;;
1601;SDS011;794;48.592;9.634;2023-04-23T03:17:03;5.37;;;2.40;;
1601;SDS011;794;48.592;9.634;2023-04-23T03:19:33;2.50;;;2.30;;
1601;SDS011;794;48.592;9.634;2023-04-23T03:22:01;2.10;;;1.90;;
1601;SDS011;794;48.592;9.634;2023-04-23T03:24:29;2.53;;;2.33;;
1601;SDS011;794;48.592;9.634;2023-04-23T03:27:01;3.50;;;1.90;;
1601;SDS011;794;48.592;9.634;2023-04-23T03:29:27;2.37;;;1.93;;
1601;SDS011;794;48.592;9.634;2023-04-23T03:31:54;2.80;;;1.97;;
1601;SDS011;794;48.592;9.634;2023-04-23T03:34:24;3.33;;;1.73;;
1601;SDS011;794;48.592;9.634;2023-04-23T03:36:51;2.30;;;2.10;;
1601;SDS011;794;48.592;9.634;2023-04-23T03:39:21;2.00;;;1.77;;
1601;SDS011;794;48.592;9.634;2023-04-23T03:41:48;2.07;;;1.87;;
1601;SDS011;794;48.592;9.634;2023-04-23T03:44:16;3.97;;;2.00;;
1601;SDS011;794;48.592;9.634;2023-04-23T03:46:43;3.07;;;1.83;;
1601;SDS011;794;48.592;9.634;2023-04-23T03:49:09;2.83;;;2.10;;
1601;SDS011;794;48.592;9.634;2023-04-23T03:51:36;2.00;;;1.90;;
1601;SDS011;794;48.592;9.634;2023-04-23T03:54:03;2.93;;;2.30;;
1601;SDS011;794;48.592;9.634;2023-04-23T03:56:33;4.43;;;2.00;;
1601;SDS011;794;48.592;9.634;2023-04-23T03:59:02;7.83;;;2.63;;
1601;SDS011;794;48.592;9.634;2023-04-23T04:01:28;3.07;;;1.93;;
1601;SDS011;794;48.592;9.634;2023-04-23T04:03:56;2.03;;;1.90;;
1601;SDS011;794;48.592;9.634;2023-04-23T04:06:23;2.73;;;2.47;;
1601;SDS011;794;48.592;9.634;2023-04-23T04:08:52;3.30;;;2.57;;
1601;SDS011;794;48.592;9.634;2023-04-23T04:11:20;3.20;;;2.37;;
1601;SDS011;794;48.592;9.634;2023-04-23T04:13:53;3.00;;;2.10;;
1601;SDS011;794;48.592;9.634;2023-04-23T04:16:22;2.00;;;1.90;;
1601;SDS011;794;48.592;9.634;2023-04-23T04:18:49;3.13;;;2.40;;
1601;SDS011;794;48.592;9.634;2023-04-23T04:21:16;4.43;;;2.20;;
1601;SDS011;794;48.592;9.634;2023-04-23T04:23:43;5.20;;;2.33;;
1601;SDS011;794;48.592;9.634;2023-04-23T04:26:13;2.50;;;2.30;;
1601;SDS011;794;48.592;9.634;2023-04-23T04:28:43;2.43;;;2.23;;
1601;SDS011;794;48.592;9.634;2023-04-23T04:31:11;3.10;;;2.43;;
1601;SDS011;794;48.592;9.634;2023-04-23T04:33:39;2.50;;;2.30;;
1601;SDS011;794;48.592;9.634;2023-04-23T04:36:07;2.23;;;2.03;;
1601;SDS011;794;48.592;9.634;2023-04-23T04:38:34;2.63;;;2.10;;
1601;SDS011;794;48.592;9.634;2023-04-23T04:41:03;2.63;;;2.43;;
1601;SDS011;794;48.592;9.634;2023-04-23T04:43:30;2.60;;;2.40;;
1601;SDS011;794;48.592;9.634;2023-04-23T04:45:58;3.40;;;2.77;;
1601;SDS011;794;48.592;9.634;2023-04-23T04:48:27;3.47;;;2.23;;
1601;SDS011;794;48.592;9.634;2023-04-23T04:50:54;3.03;;;2.10;;
1601;SDS011;794;48.592;9.634;2023-04-23T04:53:21;2.10;;;2.00;;
1601;SDS011;794;48.592;9.634;2023-04-23T04:55:48;2.33;;;2.13;;
1601;SDS011;794;48.592;9.634;2023-04-23T04:58:18;2.13;;;2.00;;
1601;SDS011;794;48.592;9.634;2023-04-23T05:00:45;2.50;;;2.30;;
1601;SDS011;794;48.592;9.634;2023-04-23T05:03:13;2.17;;;2.00;;
1601;SDS011;794;48.592;9.634;2023-04-23T05:05:41;2.00;;;1.90;;
1601;SDS011;794;48.592;9.634;2023-04-23T05:08:09;3.47;;;2.10;;
1601;SDS011;794;48.592;9.634;2023-04-23T05:10:36;6.13;;;3.10;;
1601;SDS011;794;48.592;9.634;2023-04-23T05:13:03;4.00;;;2.67;;
1601;SDS011;794;48.592;9.634;2023-04-23T05:15:32;3.90;;;3.60;;
1601;SDS011;794;48.592;9.634;2023-04-23T05:17:59;2.93;;;2.57;;
1601;SDS011;794;48.592;9.634;2023-04-23T05:20:28;5.83;;;2.73;;
1601;SDS011;794;48.592;9.634;2023-04-23T05:22:56;2.90;;;2.70;;
1601;SDS011;794;48.592;9.634;2023-04-23T05:25:26;2.63;;;2.43;;
1601;SDS011;794;48.592;9.634;2023-04-23T05:27:53;2.13;;;1.87;;
1601;SDS011;794;48.592;9.634;2023-04-23T05:30:20;25.23;;;10.50;;
1601;SDS011;794;48.592;9.634;2023-04-23T05:32:48;2.40;;;1.87;;
1601;SDS011;794;48.592;9.634;2023-04-23T05:35:15;2.37;;;1.73;;
1601;SDS011;794;48.592;9.634;2023-04-23T05:37:42;2.63;;;1.57;;
1601;SDS011;794;48.592;9.634;2023-04-23T05:40:12;1.87;;;1.60;;
1601;SDS011;794;48.592;9.634;2023-04-23T05:42:39;3.83;;;2.10;;
1601;SDS011;794;48.592;9.634;2023-04-23T05:45:07;3.70;;;1.53;;
1601;SDS011;794;48.592;9.634;2023-04-23T05:47:34;4.40;;;1.30;;
1601;SDS011;794;48.592;9.634;2023-04-23T05:50:03;1.23;;;0.93;;
1601;SDS011;794;48.592;9.634;2023-04-23T05:52:31;1.30;;;1.20;;
1601;SDS011;794;48.592;9.634;2023-04-23T05:55:01;3.47;;;1.07;;
1601;SDS011;794;48.592;9.634;2023-04-23T05:57:29;1.23;;;1.03;;
1601;SDS011;794;48.592;9.634;2023-04-23T05:59:58;1.60;;;1.20;;
1601;SDS011;794;48.592;9.634;2023-04-23T06:02:27;2.50;;;1.10;;
1601;SDS011;794;48.592;9.634;2023-04-23T06:04:54;3.70;;;1.30;;
1601;SDS011;794;48.592;9.634;2023-04-23T06:07:21;1.20;;;1.10;;
1601;SDS011;794;48.592;9.634;2023-04-23T06:09:50;2.00;;;1.20;;
1601;SDS011;794;48.592;9.634;2023-04-23T06:12:17;1.10;;;0.83;;
1601;SDS011;794;48.592;9.634;2023-04-23T06:14:45;2.00;;;1.43;;
1601;SDS011;794;48.592;9.634;2023-04-23T06:17:12;2.43;;;0.97;;
1601;SDS011;794;48.592;9.634;2023-04-23T06:19:38;2.37;;;1.30;;
1601;SDS011;794;48.592;9.634;2023-04-23T06:22:06;1.20;;;1.10;;
1601;SDS011;794;48.592;9.634;2023-04-23T06:24:33;1.17;;;0.87;;
1601;SDS011;794;48.592;9.634;2023-04-23T06:27:01;2.80;;;1.07;;
1601;SDS011;794;48.592;9.634;2023-04-23T06:29:29;1.63;;;1.10;;
1601;SDS011;794;48.592;9.634;2023-04-23T06:32:01;1.30;;;0.90;;
1601;SDS011;794;48.592;9.634;2023-04-23T06:34:29;0.90;;;0.77;;
1601;SDS011;794;48.592;9.634;2023-04-23T06:36:56;1.77;;;0.90;;
1601;SDS011;794;48.592;9.634;2023-04-23T06:39:23;1.30;;;0.93;;
1601;SDS011;794;48.592;9.634;2023-04-23T06:41:53;3.17;;;2.30;;
1601;SDS011;794;48.592;9.634;2023-04-23T06:44:28;1.50;;;0.77;;
1601;SDS011;794;48.592;9.634;2023-04-23T06:46:54;0.70;;;0.70;;
1601;SDS011;794;48.592;9.634;2023-04-23T06:49:23;1.67;;;0.83;;
1601;SDS011;794;48.592;9.634;2023-04-23T06:51:52;1.80;;;1.00;;
1601;SDS011;794;48.592;9.634;2023-04-23T06:54:23;0.63;;;0.63;;
1601;SDS011;794;48.592;9.634;2023-04-23T06:56:53;0.80;;;0.80;;
1601;SDS011;794;48.592;9.634;2023-04-23T06:59:21;1.07;;;0.90;;
1601;SDS011;794;48.592;9.634;2023-04-23T07:01:47;1.47;;;0.80;;
1601;SDS011;794;48.592;9.634;2023-04-23T07:04:14;1.20;;;1.10;;
1601;SDS011;794;48.592;9.634;2023-04-23T07:06:43;3.67;;;1.00;;
1601;SDS011;794;48.592;9.634;2023-04-23T07:09:09;1.80;;;0.90;;
1601;SDS011;794;48.592;9.634;2023-04-23T07:11:40;2.53;;;1.77;;
1601;SDS011;794;48.592;9.634;2023-04-23T07:14:09;1.60;;;1.30;;
1601;SDS011;794;48.592;9.634;2023-04-23T07:16:36;3.57;;;1.97;;
1601;SDS011;794;48.592;9.634;2023-04-23T07:19:03;3.00;;;2.10;;
1601;SDS011;794;48.592;9.634;2023-04-23T07:21:30;2.37;;;1.50;;
1601;SDS011;794;48.592;9.634;2023-04-23T07:23:58;0.97;;;0.80;;
1601;SDS011;794;48.592;9.634;2023-04-23T07:26:30;0.70;;;0.70;;
1601;SDS011;794;48.592;9.634;2023-04-23T07:28:57;0.90;;;0.90;;
1601;SDS011;794;48.592;9.634;2023-04-23T07:31:25;2.93;;;0.90;;
1601;SDS011;794;48.592;9.634;2023-04-23T07:33:52;1.10;;;1.00;;
1601;SDS011;794;48.592;9.634;2023-04-23T07:36:20;1.40;;;0.60;;
1601;SDS011;794;48.592;9.634;2023-04-23T07:38:47;0.80;;;0.70;;
1601;SDS011;794;48.592;9.634;2023-04-23T07:41:16;1.30;;;0.80;;
1601;SDS011;794;48.592;9.634;2023-04-23T07:43:43;1.50;;;0.70;;
1601;SDS011;794;48.592;9.634;2023-04-23T07:46:15;1.10;;;0.50;;
1601;SDS011;794;48.592;9.634;2023-04-23T07:48:46;0.60;;;0.50;;
1601;SDS011;794;48.592;9.634;2023-04-23T07:51:13;1.37;;;0.70;;
1601;SDS011;794;48.592;9.634;2023-04-23T07:53:43;0.97;;;0.83;;
1601;SDS011;794;48.592;9.634;2023-04-23T07:56:12;0.60;;;0.50;;
1601;SDS011;794;48.592;9.634;2023-04-23T07:58:47;0.70;;;0.50;;
1601;SDS011;794;48.592;9.634;2023-04-23T08:01:14;1.73;;;0.80;;
1601;SDS011;794;48.592;9.634;2023-04-23T08:03:42;2.80;;;0.87;;
1601;SDS011;794;48.592;9.634;2023-04-23T08:06:09;1.30;;;0.50;;
1601;SDS011;794;48.592;9.634;2023-04-23T08:08:38;0.70;;;0.60;;
1601;SDS011;794;48.592;9.634;2023-04-23T08:11:06;0.80;;;0.60;;
1601;SDS011;794;48.592;9.634;2023-04-23T08:13:37;1.70;;;0.83;;
1601;SDS011;794;48.592;9.634;2023-04-23T08:16:04;0.70;;;0.60;;
1601;SDS011;794;48.592;9.634;2023-04-23T08:18:31;1.03;;;0.63;;
1601;SDS011;794;48.592;9.634;2023-04-23T08:20:59;0.70;;;0.60;;
1601;SDS011;794;48.592;9.634;2023-04-23T08:23:26;3.10;;;0.70;;
1601;SDS011;794;48.592;9.634;2023-04-23T08:25:53;1.53;;;0.70;;
1601;SDS011;794;48.592;9.634;2023-04-23T08:28:23;1.33;;;0.63;;
1601;SDS011;794;48.592;9.634;2023-04-23T08:30:53;1.17;;;0.93;;
1601;SDS011;794;48.592;9.634;2023-04-23T08:33:21;0.70;;;0.60;;
1601;SDS011;794;48.592;9.634;2023-04-23T08:35:48;1.27;;;0.60;;
1601;SDS011;794;48.592;9.634;2023-04-23T08:38:17;1.40;;;0.80;;
1601;SDS011;794;48.592;9.634;2023-04-23T08:40:44;1.20;;;1.00;;
1601;SDS011;794;48.592;9.634;2023-04-23T08:43:15;2.10;;;1.00;;
1601;SDS011;794;48.592;9.634;2023-04-23T08:45:45;4.43;;;1.17;;
1601;SDS011;794;48.592;9.634;2023-04-23T08:48:14;0.70;;;0.60;;
1601;SDS011;794;48.592;9.634;2023-04-23T08:50:44;0.80;;;0.80;;
1601;SDS011;794;48.592;9.634;2023-04-23T08:53:12;0.73;;;0.60;;
1601;SDS011;794;48.592;9.634;2023-04-23T08:55:43;2.83;;;0.80;;
1601;SDS011;794;48.592;9.634;2023-04-23T08:58:11;2.90;;;0.83;;
1601;SDS011;794;48.592;9.634;2023-04-23T09:00:38;2.50;;;0.80;;
1601;SDS011;794;48.592;9.634;2023-04-23T09:03:06;1.27;;;0.70;;
1601;SDS011;794;48.592;9.634;2023-04-23T09:05:35;1.77;;;0.90;;
1601;SDS011;794;48.592;9.634;2023-04-23T09:08:08;0.80;;;0.80;;
1601;SDS011;794;48.592;9.634;2023-04-23T09:10:39;2.60;;;0.70;;
1601;SDS011;794;48.592;9.634;2023-04-23T09:13:06;1.23;;;0.80;;
1601;SDS011;794;48.592;9.634;2023-04-23T09:15:33;1.97;;;0.77;;
1601;SDS011;794;48.592;9.634;2023-04-23T09:18:07;1.10;;;0.70;;
1601;SDS011;794;48.592;9.634;2023-04-23T09:20:36;0.80;;;0.60;;
1601;SDS011;794;48.592;9.634;2023-04-23T09:23:05;4.00;;;1.10;;
1601;SDS011;794;48.592;9.634;2023-04-23T09:25:33;2.73;;;0.70;;
1601;SDS011;794;48.592;9.634;2023-04-23T09:28:01;0.60;;;0.50;;
1601;SDS011;794;48.592;9.634;2023-04-23T09:30:37;1.73;;;1.00;;
1601;SDS011;794;48.592;9.634;2023-04-23T09:33:07;0.90;;;0.90;;
1601;SDS011;794;48.592;9.634;2023-04-23T09:35:38;0.87;;;0.70;;
1601;SDS011;794;48.592;9.634;2023-04-23T09:38:07;1.10;;;0.90;;
1601;SDS011;794;48.592;9.634;2023-04-23T09:40:35;0.80;;;0.80;;
1601;SDS011;794;48.592;9.634;2023-04-23T09:43:04;1.57;;;1.23;;
1601;SDS011;794;48.592;9.634;2023-04-23T09:45:46;1.43;;;1.00;;
1601;SDS011;794;48.592;9.634;2023-04-23T09:48:15;2.20;;;0.90;;
1601;SDS011;794;48.592;9.634;2023-04-23T09:50:49;1.20;;;0.80;;
1601;SDS011;794;48.592;9.634;2023-04-23T09:53:19;1.73;;;1.20;;
1601;SDS011;794;48.592;9.634;2023-04-23T09:55:46;5.70;;;1.17;;
1601;SDS011;794;48.592;9.634;2023-04-23T09:58:17;1.57;;;1.10;;
1601;SDS011;794;48.592;9.634;2023-04-23T10:00:48;1.10;;;1.00;;
1601;SDS011;794;48.592;9.634;2023-04-23T10:03:14;1.23;;;0.90;;
1601;SDS011;794;48.592;9.634;2023-04-23T10:05:53;1.63;;;1.40;;
1601;SDS011;794;48.592;9.634;2023-04-23T10:08:23;1.43;;;1.17;;
1601;SDS011;794;48.592;9.634;2023-04-23T10:10:51;1.30;;;1.20;;
1601;SDS011;794;48.592;9.634;2023-04-23T10:13:18;1.70;;;1.10;;
1601;SDS011;794;48.592;9.634;2023-04-23T10:15:47;1.63;;;1.20;;
1601;SDS011;794;48.592;9.634;2023-04-23T10:18:24;1.37;;;1.27;;
1601;SDS011;794;48.592;9.634;2023-04-23T10:20:56;3.50;;;1.37;;
1601;SDS011;794;48.592;9.634;2023-04-23T10:23:23;1.23;;;1.07;;
1601;SDS011;794;48.592;9.634;2023-04-23T10:25:51;1.30;;;1.20;;
1601;SDS011;794;48.592;9.634;2023-04-23T10:28:20;1.17;;;1.07;;
1601;SDS011;794;48.592;9.634;2023-04-23T10:30:53;1.10;;;1.00;;
1601;SDS011;794;48.592;9.634;2023-04-23T10:33:21;1.23;;;1.13;;
1601;SDS011;794;48.592;9.634;2023-04-23T10:35:49;3.00;;;1.10;;
1601;SDS011;794;48.592;9.634;2023-04-23T10:38:23;1.70;;;1.57;;
1601;SDS011;794;48.592;9.634;2023-04-23T10:40:54;3.03;;;1.60;;
1601;SDS011;794;48.592;9.634;2023-04-23T10:43:24;1.23;;;1.13;;
1601;SDS011;794;48.592;9.634;2023-04-23T10:45:53;2.23;;;1.77;;
1601;SDS011;794;48.592;9.634;2023-04-23T10:48:20;1.30;;;1.00;;
1601;SDS011;794;48.592;9.634;2023-04-23T10:50:56;0.90;;;0.77;;
1601;SDS011;794;48.592;9.634;2023-04-23T10:53:27;1.20;;;1.10;;
1601;SDS011;794;48.592;9.634;2023-04-23T10:56:05;3.80;;;1.03;;
1601;SDS011;794;48.592;9.634;2023-04-23T10:58:46;0.80;;;0.77;;
1601;SDS011;794;48.592;9.634;2023-04-23T11:01:17;1.83;;;1.23;;
1601;SDS011;794;48.592;9.634;2023-04-23T11:03:46;4.17;;;1.10;;
1601;SDS011;794;48.592;9.634;2023-04-23T11:06:13;1.57;;;0.70;;
1601;SDS011;794;48.592;9.634;2023-04-23T11:08:52;0.83;;;0.60;;
1601;SDS011;794;48.592;9.634;2023-04-23T11:11:23;2.20;;;0.90;;
1601;SDS011;794;48.592;9.634;2023-04-23T11:14:09;1.40;;;0.93;;
1601;SDS011;794;48.592;9.634;2023-04-23T11:16:39;1.60;;;1.07;;
1601;SDS011;794;48.592;9.634;2023-04-23T11:19:09;1.50;;;0.70;;
1601;SDS011;794;48.592;9.634;2023-04-23T11:21:58;1.80;;;0.80;;
1601;SDS011;794;48.592;9.634;2023-04-23T11:24:33;0.80;;;0.80;;
1601;SDS011;794;48.592;9.634;2023-04-23T11:27:06;1.10;;;0.83;;
1601;SDS011;794;48.592;9.634;2023-04-23T11:29:35;0.93;;;0.83;;
1601;SDS011;794;48.592;9.634;2023-04-23T11:32:06;0.73;;;0.73;;
1601;SDS011;794;48.592;9.634;2023-04-23T11:34:37;0.80;;;0.80;;
1601;SDS011;794;48.592;9.634;2023-04-23T11:37:08;6.10;;;0.80;;
1601;SDS011;794;48.592;9.634;2023-04-23T11:39:41;0.90;;;0.87;;
1601;SDS011;794;48.592;9.634;2023-04-23T11:42:09;3.10;;;1.13;;
1601;SDS011;794;48.592;9.634;2023-04-23T11:44:38;1.27;;;0.83;;
1601;SDS011;794;48.592;9.634;2023-04-23T11:47:08;1.77;;;0.83;;
1601;SDS011;794;48.592;9.634;2023-04-23T11:49:40;0.67;;;0.57;;
1601;SDS011;794;48.592;9.634;2023-04-23T11:52:08;1.23;;;1.13;;
1601;SDS011;794;48.592;9.634;2023-04-23T11:54:40;1.03;;;0.80;;
1601;SDS011;794;48.592;9.634;2023-04-23T11:57:07;1.10;;;0.73;;
1601;SDS011;794;48.592;9.634;2023-04-23T11:59:35;1.47;;;0.90;;
1601;SDS011;794;48.592;9.634;2023-04-23T12:02:03;1.20;;;1.00;;
1601;SDS011;794;48.592;9.634;2023-04-23T12:04:33;1.10;;;1.00;;
1601;SDS011;794;48.592;9.634;2023-04-23T12:07:00;1.10;;;0.60;;
1601;SDS011;794;48.592;9.634;2023-04-23T12:09:27;0.90;;;0.80;;
1601;SDS011;794;48.592;9.634;2023-04-23T12:11:58;1.73;;;0.70;;
1601;SDS011;794;48.592;9.634;2023-04-23T12:14:26;1.50;;;0.70;;
1601;SDS011;794;48.592;9.634;2023-04-23T12:16:55;0.67;;;0.67;;
1601;SDS011;794;48.592;9.634;2023-04-23T12:19:33;0.73;;;0.73;;
1601;SDS011;794;48.592;9.634;2023-04-23T12:22:03;0.80;;;0.80;;
1601;SDS011;794;48.592;9.634;2023-04-23T12:24:43;1.53;;;0.80;;
1601;SDS011;794;48.592;9.634;2023-04-23T12:27:19;1.07;;;0.77;;
1601;SDS011;794;48.592;9.634;2023-04-23T12:29:47;1.10;;;0.80;;
1601;SDS011;794;48.592;9.634;2023-04-23T12:32:15;0.80;;;0.70;;
1601;SDS011;794;48.592;9.634;2023-04-23T12:34:50;5.43;;;1.00;;
1601;SDS011;794;48.592;9.634;2023-04-23T12:37:22;1.13;;;0.90;;
1601;SDS011;794;48.592;9.634;2023-04-23T12:39:52;3.03;;;1.00;;
1601;SDS011;794;48.592;9.634;2023-04-23T12:42:25;0.90;;;0.70;;
1601;SDS011;794;48.592;9.634;2023-04-23T12:44:53;0.93;;;0.90;;
1601;SDS011;794;48.592;9.634;2023-04-23T12:47:22;1.03;;;0.93;;
1601;SDS011;794;48.592;9.634;2023-04-23T12:49:49;2.10;;;0.90;;
1601;SDS011;794;48.592;9.634;2023-04-23T12:52:17;0.70;;;0.50;;
1601;SDS011;794;48.592;9.634;2023-04-23T12:54:44;1.97;;;0.77;;
1601;SDS011;794;48.592;9.634;2023-04-23T12:57:11;1.27;;;1.00;;
1601;SDS011;794;48.592;9.634;2023-04-23T12:59:43;1.30;;;1.20;;
1601;SDS011;794;48.592;9.634;2023-04-23T13:02:12;1.30;;;1.20;;
1601;SDS011;794;48.592;9.634;2023-04-23T13:04:39;0.70;;;0.63;;
1601;SDS011;794;48.592;9.634;2023-04-23T13:07:08;1.30;;;0.90;;
1601;SDS011;794;48.592;9.634;2023-04-23T13:09:34;2.17;;;0.90;;
1601;SDS011;794;48.592;9.634;2023-04-23T13:12:01;1.10;;;0.93;;
1601;SDS011;794;48.592;9.634;2023-04-23T13:14:28;1.20;;;0.70;;
1601;SDS011;794;48.592;9.634;2023-04-23T13:16:57;1.00;;;0.80;;
1601;SDS011;794;48.592;9.634;2023-04-23T13:19:24;1.63;;;1.10;;
1601;SDS011;794;48.592;9.634;2023-04-23T13:21:51;1.10;;;1.00;;
1601;SDS011;794;48.592;9.634;2023-04-23T13:24:18;1.00;;;0.80;;
1601;SDS011;794;48.592;9.634;2023-04-23T13:26:45;3.67;;;1.00;;
1601;SDS011;794;48.592;9.634;2023-04-23T13:29:15;2.90;;;1.20;;
1601;SDS011;794;48.592;9.634;2023-04-23T13:31:44;1.00;;;0.80;;
1601;SDS011;794;48.592;9.634;2023-04-23T13:34:13;1.10;;;0.90;;
1601;SDS011;794;48.592;9.634;2023-04-23T13:36:40;1.20;;;0.90;;
1601;SDS011;794;48.592;9.634;2023-04-23T13:39:08;1.90;;;0.83;;
1601;SDS011;794;48.592;9.634;2023-04-23T13:41:38;2.47;;;1.07;;
1601;SDS011;794;48.592;9.634;2023-04-23T13:44:05;3.17;;;1.27;;
1601;SDS011;794;48.592;9.634;2023-04-23T13:46:35;1.67;;;1.20;;
1601;SDS011;794;48.592;9.634;2023-04-23T13:49:04;4.23;;;1.63;;
1601;SDS011;794;48.592;9.634;2023-04-23T13:51:32;1.43;;;1.27;;
1601;SDS011;794;48.592;9.634;2023-04-23T13:54:03;4.10;;;1.50;;
1601;SDS011;794;48.592;9.634;2023-04-23T13:56:33;4.03;;;2.17;;
1601;SDS011;794;48.592;9.634;2023-04-23T13:59:01;3.63;;;1.90;;
1601;SDS011;794;48.592;9.634;2023-04-23T14:01:28;4.17;;;2.43;;
1601;SDS011;794;48.592;9.634;2023-04-23T14:03:58;2.20;;;1.77;;
1601;SDS011;794;48.592;9.634;2023-04-23T14:06:28;6.23;;;3.93;;
1601;SDS011;794;48.592;9.634;2023-04-23T14:08:56;4.00;;;3.20;;
1601;SDS011;794;48.592;9.634;2023-04-23T14:11:23;1.53;;;1.40;;
1601;SDS011;794;48.592;9.634;2023-04-23T14:13:50;1.50;;;1.40;;
1601;SDS011;794;48.592;9.634;2023-04-23T14:16:20;2.77;;;2.13;;
1601;SDS011;794;48.592;9.634;2023-04-23T14:18:50;4.53;;;3.67;;
1601;SDS011;794;48.592;9.634;2023-04-23T14:21:18;2.40;;;1.70;;
1601;SDS011;794;48.592;9.634;2023-04-23T14:23:48;1.63;;;1.10;;
1601;SDS011;794;48.592;9.634;2023-04-23T14:26:25;3.40;;;1.40;;
1601;SDS011;794;48.592;9.634;2023-04-23T14:28:55;0.97;;;0.70;;
1601;SDS011;794;48.592;9.634;2023-04-23T14:31:30;4.13;;;2.30;;
1601;SDS011;794;48.592;9.634;2023-04-23T14:33:57;3.10;;;2.80;;
1601;SDS011;794;48.592;9.634;2023-04-23T14:36:25;2.30;;;1.13;;
1601;SDS011;794;48.592;9.634;2023-04-23T14:38:52;2.00;;;1.80;;
1601;SDS011;794;48.592;9.634;2023-04-23T14:41:19;3.57;;;1.50;;
1601;SDS011;794;48.592;9.634;2023-04-23T14:43:47;1.43;;;1.23;;
1601;SDS011;794;48.592;9.634;2023-04-23T14:46:14;2.57;;;1.83;;
1601;SDS011;794;48.592;9.634;2023-04-23T14:48:41;3.83;;;1.20;;
1601;SDS011;794;48.592;9.634;2023-04-23T14:51:08;1.67;;;1.57;;
1601;SDS011;794;48.592;9.634;2023-04-23T14:53:35;3.07;;;1.47;;
1601;SDS011;794;48.592;9.634;2023-04-23T14:56:05;1.10;;;1.00;;
1601;SDS011;794;48.592;9.634;2023-04-23T14:58:34;1.20;;;1.00;;
1601;SDS011;794;48.592;9.634;2023-04-23T15:01:04;3.70;;;1.50;;
1601;SDS011;794;48.592;9.634;2023-04-23T15:03:31;1.23;;;0.90;;
1601;SDS011;794;48.592;9.634;2023-04-23T15:05:58;2.83;;;1.00;;
1601;SDS011;794;48.592;9.634;2023-04-23T15:08:27;0.83;;;0.83;;
1601;SDS011;794;48.592;9.634;2023-04-23T15:10:54;1.57;;;1.20;;
1601;SDS011;794;48.592;9.634;2023-04-23T15:16:18;1.67;;;1.07;;
1601;SDS011;794;48.592;9.634;2023-04-23T15:18:52;0.90;;;0.90;;
1601;SDS011;794;48.592;9.634;2023-04-23T15:21:23;1.50;;;0.90;;
1601;SDS011;794;48.592;9.634;2023-04-23T15:23:50;2.87;;;0.93;;
1601;SDS011;794;48.592;9.634;2023-04-23T15:26:20;1.40;;;1.30;;
1601;SDS011;794;48.592;9.634;2023-04-23T15:28:47;2.03;;;1.00;;
1601;SDS011;794;48.592;9.634;2023-04-23T15:31:15;3.03;;;1.37;;
1601;SDS011;794;48.592;9.634;2023-04-23T15:33:45;1.10;;;1.00;;
1601;SDS011;794;48.592;9.634;2023-04-23T15:36:14;9.07;;;1.60;;
1601;SDS011;794;48.592;9.634;2023-04-23T15:38:41;1.80;;;1.70;;
1601;SDS011;794;48.592;9.634;2023-04-23T15:41:08;1.67;;;1.47;;
1601;SDS011;794;48.592;9.634;2023-04-23T15:43:37;1.63;;;1.40;;